createdAt,value
2017-05-11T00:09:55.489Z,92.4
2017-05-11T00:20:10.988Z,92.7
2017-05-11T00:30:25.935Z,92.6
2017-05-11T00:40:41.083Z,93.2
2017-05-11T00:50:55.813Z,93.1
2017-05-11T01:01:11.473Z,93.5
2017-05-11T01:11:26.233Z,93.5
2017-05-11T01:21:41.098Z,93.4
2017-05-11T01:31:54.884Z,93.7
2017-05-11T01:42:10.257Z,93.9
2017-05-11T01:52:25.127Z,94
2017-05-11T02:02:39.312Z,94.5
2017-05-11T02:12:54.392Z,95.4
2017-05-11T02:23:08.439Z,95.8
2017-05-11T02:33:23.538Z,96.1
2017-05-11T02:43:38.707Z,96.7
2017-05-11T02:53:53.129Z,96.6
2017-05-11T03:04:07.140Z,96.9
2017-05-11T03:14:21.366Z,97.5
2017-05-11T03:24:36.436Z,97.5
2017-05-11T03:34:51.854Z,98.2
2017-05-11T03:45:07.337Z,98.3
2017-05-11T03:55:22.989Z,98.9
2017-05-11T04:05:37.707Z,99.2
2017-05-11T04:15:52.417Z,99.7
2017-05-11T04:26:06.521Z,99
2017-05-11T04:36:21.905Z,98.4
2017-05-11T04:46:37.407Z,97.7
2017-05-11T04:56:53.078Z,97.7
2017-05-11T05:07:08.406Z,97.2
2017-05-11T05:17:23.572Z,96.3
2017-05-11T05:27:38.943Z,95.8
2017-05-11T05:37:53.529Z,94.9
2017-05-11T05:48:08.972Z,93.6
2017-05-11T05:58:23.502Z,93.7
2017-05-11T06:08:38.450Z,92.5
2017-05-11T06:18:53.495Z,90.1
2017-05-11T06:29:07.376Z,88.6
2017-05-11T06:39:21.215Z,85.9
2017-05-11T06:49:36.497Z,84.3
2017-05-11T06:59:51.467Z,81.7
2017-05-11T07:10:06.050Z,80.2
2017-05-11T07:20:21.644Z,78.1
2017-05-11T07:30:36.527Z,76.9
2017-05-11T07:40:50.938Z,75.9
2017-05-11T07:51:05.207Z,75.8
2017-05-11T08:01:20.869Z,74.6
2017-05-11T08:11:36.188Z,72.2
2017-05-11T08:21:50.589Z,70.6
2017-05-11T08:32:06.088Z,69.8
2017-05-11T08:42:20.678Z,68.4
2017-05-11T08:52:36.088Z,68
2017-05-11T09:02:50.836Z,65.7
2017-05-11T09:13:05.034Z,65.7
2017-05-11T09:23:20.517Z,63.9
2017-05-11T09:33:36.245Z,61.8
2017-05-11T09:43:50.268Z,61.8
2017-05-11T09:54:05.534Z,61.4
2017-05-11T10:04:20.039Z,60.2
2017-05-11T10:14:34.822Z,58.8
2017-05-11T10:24:50.231Z,58
2017-05-11T10:35:04.707Z,58.2
2017-05-11T10:45:19.668Z,58.7
2017-05-11T10:55:34.852Z,57.4
2017-05-11T11:05:50.268Z,56
2017-05-11T11:16:06.081Z,55.2
2017-05-11T11:26:20.858Z,54.8
2017-05-11T11:36:34.990Z,54.6
2017-05-11T11:46:50.203Z,54.3
2017-05-11T11:57:05.916Z,55
2017-05-11T12:07:20.966Z,54.6
2017-05-11T12:17:35.812Z,54.4
2017-05-11T12:27:50.107Z,54
2017-05-11T12:38:04.482Z,54.3
2017-05-11T12:48:18.649Z,54.7
2017-05-11T12:58:34.459Z,56
2017-05-11T13:08:48.743Z,55.9
2017-05-11T13:19:04.402Z,56
2017-05-11T13:29:19.703Z,56.2
2017-05-11T13:39:35.000Z,55.9
2017-05-11T13:49:50.646Z,55.9
2017-05-11T14:00:05.405Z,55.9
2017-05-11T14:10:19.835Z,57.1
2017-05-11T14:20:34.558Z,56.8
2017-05-11T14:30:48.962Z,56.7
2017-05-11T14:41:03.005Z,55.9
2017-05-11T14:51:16.973Z,54.7
2017-05-11T15:01:31.675Z,54.2
2017-05-11T15:11:47.265Z,54.3
2017-05-11T15:22:01.280Z,55
2017-05-11T15:32:15.495Z,55.2
2017-05-11T15:42:30.382Z,55.6
2017-05-11T15:52:46.045Z,55.4
2017-05-11T16:03:01.356Z,55.8
2017-05-11T16:13:16.298Z,56
2017-05-11T16:23:31.372Z,55.5
2017-05-11T16:33:46.893Z,55.1
2017-05-11T16:44:02.257Z,56.1
2017-05-11T16:54:16.880Z,56.7
2017-05-11T17:04:31.819Z,56.2
2017-05-11T17:14:47.166Z,57.1
2017-05-11T17:25:02.652Z,58.7
2017-05-11T17:35:18.438Z,58.5
2017-05-11T17:45:34.092Z,59.9
2017-05-11T17:55:48.294Z,61.5
2017-05-11T18:06:02.959Z,63.8
2017-05-11T18:16:18.772Z,65.4
2017-05-11T18:26:33.297Z,67.1
2017-05-11T18:36:48.472Z,68.5
2017-05-11T18:47:02.469Z,68.2
2017-05-11T18:57:17.554Z,71.6
2017-05-11T19:07:32.471Z,70.7
2017-05-11T19:17:46.754Z,72.9
2017-05-11T19:28:02.520Z,74.5
2017-05-11T19:38:17.117Z,75.8
2017-05-11T19:48:32.336Z,76.6
2017-05-11T19:58:47.491Z,77.4
2017-05-11T20:09:01.624Z,78
2017-05-11T20:19:16.022Z,79.5
2017-05-11T20:29:29.842Z,80.6
2017-05-11T20:39:44.789Z,80.7
2017-05-11T20:49:58.743Z,79.4
2017-05-11T21:00:14.181Z,78.1
2017-05-11T21:10:29.031Z,77.8
2017-05-11T21:20:43.130Z,78.6
2017-05-11T21:30:56.950Z,80.4
2017-05-11T21:41:11.121Z,81.7
2017-05-11T21:51:26.647Z,82.5
2017-05-11T22:01:42.268Z,82.6
2017-05-11T22:11:56.166Z,82.8
2017-05-11T22:22:11.057Z,84.1
2017-05-11T22:32:25.484Z,86
2017-05-11T22:42:40.240Z,87.7
2017-05-11T22:52:55.937Z,88.5
2017-05-11T23:03:11.635Z,88.4
2017-05-11T23:13:25.466Z,89.3
2017-05-11T23:23:39.270Z,89.2
2017-05-11T23:33:53.429Z,88.8
2017-05-11T23:44:09.027Z,88.8
2017-05-11T23:54:23.675Z,88.6
